Time;durP1;ratioP1;P1;durP2;ratioP2;P2;SDS_P1;SDS_P2;PMS_P1;PMS_P2;Temp;Humidity;BMP_temperature;BMP_pressure;BME280_temperature;BME280_humidity;BME280_pressure;Samples;Min_cycle;Max_cycle;Signal;HPM_P1;HPM_P2
2023/03/20 00:02:02;;;;;;;8.10;4.68;;;8.00;99.90;;;;;;5094318;28;20440;-58
2023/03/20 00:04:28;;;;;;;7.07;5.00;;;7.90;99.90;;;;;;5093483;28;20069;-59
2023/03/20 00:06:54;;;;;;;6.43;4.60;;;7.90;99.90;;;;;;5093969;28;20036;-59
2023/03/20 00:09:19;;;;;;;8.02;5.38;;;7.90;99.90;;;;;;5093328;28;20036;-59
2023/03/20 00:11:50;;;;;;;9.02;5.05;;;7.90;99.90;;;;;;5092637;28;20611;-59
2023/03/20 00:14:19;;;;;;;10.60;5.75;;;7.80;99.90;;;;;;5093715;28;20105;-59
2023/03/20 00:16:45;;;;;;;;;;;7.90;99.90;;;;;;5093861;28;20088;-59
2023/03/20 00:19:17;;;;;;;9.85;4.88;;;7.90;99.90;;;;;;5093788;28;19962;-59
2023/03/20 00:21:46;;;;;;;7.50;5.03;;;7.90;99.90;;;;;;5093483;28;20377;-59
2023/03/20 00:24:13;;;;;;;7.82;4.68;;;7.90;99.90;;;;;;5093698;28;20024;-59
2023/03/20 00:26:38;;;;;;;7.72;4.32;;;7.80;99.90;;;;;;5093210;28;20079;-59
2023/03/20 00:29:06;;;;;;;8.02;4.07;;;7.80;99.90;;;;;;5093306;28;20422;-61
2023/03/20 00:31:37;;;;;;;7.95;3.97;;;7.80;99.90;;;;;;5093151;28;20071;-59
2023/03/20 00:34:11;;;;;;;7.47;4.55;;;7.70;99.90;;;;;;5093274;28;20032;-59
2023/03/20 00:36:37;;;;;;;5.63;4.10;;;7.90;99.90;;;;;;5091851;28;20052;-59
2023/03/20 00:39:03;;;;;;;5.03;3.95;;;7.80;99.90;;;;;;5093538;28;20147;-60
2023/03/20 00:41:36;;;;;;;9.32;4.45;;;7.80;99.90;;;;;;5093594;28;20470;-59
2023/03/20 00:44:11;;;;;;;6.93;3.83;;;7.80;99.90;;;;;;5093241;28;20040;-59
2023/03/20 00:46:37;;;;;;;11.15;4.32;;;7.80;99.90;;;;;;5075348;28;20043;-59
2023/03/20 00:49:04;;;;;;;9.32;4.25;;;7.80;99.90;;;;;;5093017;28;20032;-59
2023/03/20 00:51:29;;;;;;;5.47;4.07;;;7.80;99.90;;;;;;5092752;28;20044;-59
2023/03/20 00:53:55;;;;;;;6.30;4.03;;;7.80;99.90;;;;;;5092878;28;20040;-59
2023/03/20 00:56:38;;;;;;;8.95;4.65;;;7.80;99.90;;;;;;5092902;28;20078;-59
2023/03/20 00:59:04;;;;;;;8.30;4.20;;;7.70;99.90;;;;;;5092800;28;20055;-59
2023/03/20 01:01:30;;;;;;;9.27;4.55;;;7.80;99.90;;;;;;5092943;28;20389;-59
2023/03/20 01:03:58;;;;;;;7.18;5.45;;;7.80;99.90;;;;;;5092992;28;20435;-58
2023/03/20 01:06:23;;;;;;;10.60;4.78;;;7.70;99.90;;;;;;5092482;28;20044;-59
2023/03/20 01:08:49;;;;;;;7.97;4.65;;;7.70;99.90;;;;;;5092910;28;20088;-59
2023/03/20 01:11:22;;;;;;;10.77;4.70;;;7.70;99.90;;;;;;5093062;28;20506;-59
2023/03/20 01:13:48;;;;;;;12.02;4.43;;;7.70;99.90;;;;;;5092547;28;20165;-59
2023/03/20 01:16:20;;;;;;;10.93;4.53;;;7.70;99.90;;;;;;5092849;28;20051;-59
2023/03/20 01:18:46;;;;;;;11.52;4.85;;;7.70;99.90;;;;;;5092392;28;20539;-59
2023/03/20 01:21:12;;;;;;;6.72;4.50;;;7.80;99.90;;;;;;5092065;28;20043;-59
2023/03/20 01:23:38;;;;;;;10.43;4.72;;;7.80;99.90;;;;;;5092629;28;20146;-59
2023/03/20 01:26:26;;;;;;;8.43;4.38;;;7.80;99.90;;;;;;5092629;28;20127;-59
2023/03/20 01:28:51;;;;;;;10.00;4.30;;;7.80;99.90;;;;;;5091801;28;20044;-58
2023/03/20 01:31:17;;;;;;;16.60;5.20;;;7.80;99.90;;;;;;5090934;28;20101;-60
2023/03/20 01:33:43;;;;;;;9.55;4.95;;;7.80;99.90;;;;;;5092555;28;20126;-59
2023/03/20 01:36:11;;;;;;;7.75;4.68;;;7.90;99.90;;;;;;5091973;28;20074;-59
2023/03/20 01:38:37;;;;;;;10.13;5.22;;;7.90;99.90;;;;;;5092470;28;20039;-59
2023/03/20 01:41:17;;;;;;;7.95;4.80;;;7.80;99.90;;;;;;5092487;28;20062;-59
2023/03/20 01:43:44;;;;;;;10.10;4.72;;;7.90;99.90;;;;;;5092129;28;20042;-59
2023/03/20 01:46:30;;;;;;;10.32;5.30;;;7.80;99.90;;;;;;5092229;28;20040;-59
2023/03/20 01:49:05;;;;;;;10.50;5.70;;;7.90;99.90;;;;;;5092232;28;20085;-59
2023/03/20 01:51:31;;;;;;;16.10;6.05;;;7.90;99.90;;;;;;5091242;28;20395;-59
2023/03/20 01:54:12;;;;;;;15.13;6.05;;;7.80;99.90;;;;;;5092316;28;20036;-59
2023/03/20 01:56:46;;;;;;;11.15;5.60;;;7.80;99.90;;;;;;5092100;28;20122;-59
2023/03/20 01:59:22;;;;;;;9.52;5.47;;;7.90;99.90;;;;;;5092351;28;20054;-59
2023/03/20 02:01:47;;;;;;;13.80;5.55;;;7.90;99.90;;;;;;5092053;28;20123;-59
2023/03/20 02:04:14;;;;;;;10.18;6.15;;;7.90;99.90;;;;;;5092236;28;20119;-59
2023/03/20 02:06:40;;;;;;;17.35;6.55;;;7.90;99.90;;;;;;5091774;28;20036;-59
2023/03/20 02:09:07;;;;;;;11.93;5.90;;;7.90;99.90;;;;;;5092249;28;20036;-59
2023/03/20 02:11:33;;;;;;;11.57;6.22;;;7.90;99.90;;;;;;5090824;28;20040;-59
2023/03/20 02:14:01;;;;;;;11.43;6.45;;;7.80;99.90;;;;;;5092282;28;20035;-59
2023/03/20 02:16:27;;;;;;;13.60;6.38;;;7.90;99.90;;;;;;5092230;28;20128;-59
2023/03/20 02:18:55;;;;;;;12.30;7.22;;;7.90;99.90;;;;;;5091924;28;20115;-59
2023/03/20 02:21:39;;;;;;;14.60;6.97;;;7.90;99.90;;;;;;5092128;28;20031;-59
2023/03/20 02:24:14;;;;;;;15.57;7.53;;;7.80;99.90;;;;;;5092138;28;20093;-59
2023/03/20 02:26:57;;;;;;;14.45;6.68;;;7.90;99.90;;;;;;5092071;28;20044;-59
2023/03/20 02:29:29;;;;;;;17.33;7.90;;;7.90;99.90;;;;;;5091860;28;20044;-59
2023/03/20 02:32:03;;;;;;;22.33;8.35;;;7.90;99.90;;;;;;5093080;28;20047;-60
2023/03/20 02:34:54;;;;;;;11.98;6.45;;;7.90;99.90;;;;;;5095579;28;20032;-60
2023/03/20 02:37:38;;;;;;;;;;;7.90;99.90;;;;;;5096097;28;20040;-59
2023/03/20 02:40:10;;;;;;;13.93;7.95;;;7.90;99.90;;;;;;5095426;28;19919;-59
2023/03/20 02:42:41;;;;;;;16.73;7.85;;;7.90;99.90;;;;;;5095676;28;20040;-59
2023/03/20 02:45:26;;;;;;;21.38;7.88;;;7.90;99.90;;;;;;5095487;28;20044;-59
2023/03/20 02:48:20;;;;;;;16.60;8.02;;;7.80;99.90;;;;;;5095467;28;20094;-59
2023/03/20 02:50:59;;;;;;;19.95;7.45;;;7.90;99.90;;;;;;5095432;28;20071;-59
2023/03/20 02:53:39;;;;;;;17.98;7.50;;;7.90;99.90;;;;;;5095155;28;20032;-59
2023/03/20 02:56:11;;;;;;;25.55;8.95;;;7.90;99.90;;;;;;5095369;28;20032;-59
2023/03/20 02:58:49;;;;;;;13.98;8.02;;;8.00;99.90;;;;;;5094984;28;20466;-59
2023/03/20 03:01:22;;;;;;;19.35;7.65;;;8.00;99.90;;;;;;5093933;28;20130;-59
2023/03/20 03:03:57;;;;;;;22.33;8.23;;;7.90;99.90;;;;;;5095131;28;20036;-59
2023/03/20 03:06:28;;;;;;;19.73;7.57;;;7.90;99.90;;;;;;5095474;28;20040;-59
2023/03/20 03:09:32;;;;;;;18.92;8.10;;;8.00;99.90;;;;;;5094616;28;20543;-59
2023/03/20 03:12:11;;;;;;;14.35;7.03;;;8.00;99.90;;;;;;5012444;28;20045;-59
2023/03/20 03:14:36;;;;;;;19.35;7.57;;;8.00;99.90;;;;;;5012624;28;20124;-59
2023/03/20 03:17:04;;;;;;;15.45;7.88;;;8.10;99.90;;;;;;5012756;28;20176;-59
2023/03/20 03:19:33;;;;;;;15.48;7.70;;;8.10;99.90;;;;;;4996495;28;20038;-59
2023/03/20 03:21:59;;;;;;;18.67;8.00;;;8.00;99.90;;;;;;5012429;28;20042;-59
2023/03/20 03:24:31;;;;;;;19.85;8.45;;;8.10;99.90;;;;;;5012124;28;20530;-59
2023/03/20 03:26:59;;;;;;;18.80;8.73;;;8.00;99.90;;;;;;5012462;28;20057;-59
2023/03/20 03:29:30;;;;;;;14.05;8.13;;;8.00;99.90;;;;;;5012366;28;20053;-60
2023/03/20 03:31:56;;;;;;;18.67;8.55;;;8.00;99.90;;;;;;5012374;28;20045;-58
2023/03/20 03:34:23;;;;;;;19.92;7.60;;;8.10;99.90;;;;;;5012192;28;20395;-60
2023/03/20 03:37:15;;;;;;;21.17;9.38;;;8.00;99.90;;;;;;5011785;28;20054;-60
2023/03/20 03:40:19;;;;;;;16.83;8.45;;;8.10;99.90;;;;;;4995430;28;20046;-59
2023/03/20 03:43:00;;;;;;;18.15;8.85;;;8.10;99.90;;;;;;4953127;28;20090;-59
2023/03/20 03:45:37;;;;;;;17.08;8.18;;;8.10;99.90;;;;;;4953728;29;20089;-59
2023/03/20 03:48:11;;;;;;;20.35;9.73;;;8.10;99.90;;;;;;4944211;28;20575;-59
2023/03/20 03:50:47;;;;;;;15.90;7.93;;;8.10;99.90;;;;;;5031736;28;20041;-59
2023/03/20 03:53:16;;;;;;;23.40;8.93;;;8.00;99.90;;;;;;5031807;28;20049;-59
2023/03/20 03:55:51;;;;;;;16.45;8.85;;;8.10;99.90;;;;;;5031644;28;20052;-59
2023/03/20 03:58:25;;;;;;;18.85;8.88;;;8.10;99.90;;;;;;5031602;28;20037;-59
2023/03/20 04:00:54;;;;;;;17.33;8.70;;;8.10;99.90;;;;;;5031637;28;20108;-59
2023/03/20 04:03:23;;;;;;;16.23;8.88;;;8.10;99.90;;;;;;5031539;28;20033;-59
2023/03/20 04:05:52;;;;;;;13.05;7.63;;;8.10;99.90;;;;;;5031223;28;20184;-59
2023/03/20 04:08:17;;;;;;;14.98;8.32;;;8.10;99.90;;;;;;5031386;28;20041;-59
2023/03/20 04:10:43;;;;;;;16.25;7.82;;;8.10;99.90;;;;;;5031244;28;20052;-59
2023/03/20 04:13:10;;;;;;;14.88;7.40;;;8.10;99.90;;;;;;5031204;28;20131;-59
2023/03/20 04:15:37;;;;;;;18.83;8.25;;;8.10;99.90;;;;;;5031280;28;20045;-59
2023/03/20 04:18:03;;;;;;;17.55;8.02;;;8.10;99.90;;;;;;5034038;28;20551;-59
2023/03/20 04:20:29;;;;;;;14.05;7.95;;;8.20;99.90;;;;;;5093533;28;20120;-59
2023/03/20 04:22:55;;;;;;;14.68;8.02;;;8.10;99.90;;;;;;5093552;28;20161;-59
2023/03/20 04:25:23;;;;;;;14.30;8.55;;;8.20;99.90;;;;;;5093553;28;20043;-59
2023/03/20 04:27:49;;;;;;;13.90;7.35;;;8.10;99.90;;;;;;5093240;28;20032;-59
2023/03/20 04:30:16;;;;;;;15.18;7.57;;;8.20;99.90;;;;;;5093438;28;20039;-60
2023/03/20 04:32:41;;;;;;;15.15;7.40;;;8.10;99.90;;;;;;5093417;28;20032;-59
2023/03/20 04:35:07;;;;;;;14.60;7.10;;;8.10;99.90;;;;;;5093241;28;20071;-59
2023/03/20 04:37:33;;;;;;;16.02;7.60;;;8.10;99.90;;;;;;5093511;28;20048;-60
2023/03/20 04:39:59;;;;;;;14.63;7.20;;;8.10;99.90;;;;;;5093278;28;20097;-60
2023/03/20 04:42:24;;;;;;;15.98;8.57;;;8.10;99.90;;;;;;5093312;28;20051;-59
2023/03/20 04:44:50;;;;;;;13.63;7.68;;;8.10;99.90;;;;;;5092991;28;20032;-59
2023/03/20 04:47:16;;;;;;;15.77;8.35;;;8.10;99.90;;;;;;5093142;28;20032;-59
2023/03/20 04:49:41;;;;;;;12.77;8.15;;;8.10;99.90;;;;;;5093201;28;20035;-59
2023/03/20 04:52:07;;;;;;;20.33;9.07;;;8.10;99.90;;;;;;5092998;28;20044;-58
2023/03/20 04:54:33;;;;;;;12.43;7.70;;;8.10;99.90;;;;;;5092244;28;20135;-59
2023/03/20 04:56:59;;;;;;;18.38;8.80;;;8.10;99.90;;;;;;5093330;28;20363;-59
2023/03/20 04:59:24;;;;;;;14.57;8.45;;;8.10;99.90;;;;;;5093047;28;20036;-59
2023/03/20 05:01:50;;;;;;;19.08;8.68;;;8.10;99.90;;;;;;5093016;28;20032;-60
2023/03/20 05:04:16;;;;;;;14.75;8.70;;;8.10;99.90;;;;;;5093109;28;20068;-59
2023/03/20 05:06:42;;;;;;;13.30;8.63;;;8.10;99.90;;;;;;5092298;28;20040;-59
2023/03/20 05:09:09;;;;;;;24.30;9.13;;;8.10;99.90;;;;;;5092507;28;20052;-59
2023/03/20 05:11:34;;;;;;;16.80;8.45;;;8.10;99.90;;;;;;5092381;28;20498;-59
2023/03/20 05:14:00;;;;;;;25.60;9.40;;;8.10;99.90;;;;;;5092927;28;20075;-59
2023/03/20 05:16:26;;;;;;;18.05;8.55;;;8.10;99.90;;;;;;5092742;28;20121;-58
2023/03/20 05:18:51;;;;;;;13.25;8.05;;;8.10;99.90;;;;;;5091161;28;20082;-59
2023/03/20 05:21:17;;;;;;;15.20;8.50;;;8.20;99.90;;;;;;5092264;28;20076;-59
2023/03/20 05:23:42;;;;;;;14.65;8.68;;;8.20;99.90;;;;;;5092751;28;20040;-59
2023/03/20 05:26:08;;;;;;;13.68;8.07;;;8.20;99.90;;;;;;5092388;28;20044;-59
2023/03/20 05:28:34;;;;;;;17.70;9.02;;;8.20;99.90;;;;;;5092624;28;20040;-59
2023/03/20 05:30:59;;;;;;;17.08;8.32;;;8.20;99.90;;;;;;5092191;28;20084;-59
2023/03/20 05:33:25;;;;;;;16.48;8.60;;;8.20;99.90;;;;;;5092716;28;20492;-59
2023/03/20 05:35:51;;;;;;;15.43;8.32;;;8.20;99.90;;;;;;5092242;28;20652;-58
2023/03/20 05:38:16;;;;;;;13.43;7.65;;;8.30;99.90;;;;;;5092528;28;20044;-60
2023/03/20 05:40:42;;;;;;;17.52;8.90;;;8.20;99.90;;;;;;5091227;28;20036;-60
2023/03/20 05:43:08;;;;;;;18.02;8.80;;;8.10;99.90;;;;;;5092366;28;20044;-59
2023/03/20 05:45:34;;;;;;;16.27;8.25;;;8.10;99.90;;;;;;5092333;28;20124;-59
2023/03/20 05:47:59;;;;;;;15.90;7.80;;;8.20;99.90;;;;;;5092163;28;20075;-58
2023/03/20 05:50:25;;;;;;;16.92;8.10;;;8.10;99.90;;;;;;5092349;28;20036;-59
2023/03/20 05:52:51;;;;;;;13.13;8.13;;;8.20;99.90;;;;;;5090882;28;20213;-58
2023/03/20 05:55:16;;;;;;;17.15;8.75;;;8.10;99.90;;;;;;5092430;28;20036;-58
2023/03/20 05:57:42;;;;;;;17.10;8.25;;;8.10;99.90;;;;;;5092215;28;20040;-58
2023/03/20 06:00:09;;;;;;;18.17;8.27;;;8.10;99.90;;;;;;5091928;28;20044;-59
2023/03/20 06:02:35;;;;;;;14.73;8.77;;;8.10;99.90;;;;;;5102424;28;20043;-58
2023/03/20 06:05:02;;;;;;;15.18;8.75;;;8.10;99.90;;;;;;5112575;28;20123;-59
2023/03/20 06:07:28;;;;;;;16.65;9.02;;;8.10;99.90;;;;;;5106300;28;20478;-58
2023/03/20 06:09:54;;;;;;;15.23;8.82;;;8.10;99.90;;;;;;5096227;28;20086;-59
2023/03/20 06:12:20;;;;;;;14.32;7.85;;;8.10;99.90;;;;;;5094832;28;20071;-59
2023/03/20 06:14:46;;;;;;;18.13;8.68;;;8.10;99.90;;;;;;5096074;28;20078;-59
2023/03/20 06:17:11;;;;;;;19.00;9.07;;;8.10;99.90;;;;;;5096120;28;20036;-59
2023/03/20 06:19:37;;;;;;;14.95;8.90;;;8.10;99.90;;;;;;5096115;28;20047;-59
2023/03/20 06:22:03;;;;;;;14.80;9.02;;;8.10;99.90;;;;;;5095972;28;20549;-59
2023/03/20 06:24:29;;;;;;;17.38;9.35;;;8.20;99.90;;;;;;5096319;28;20036;-59
2023/03/20 06:26:55;;;;;;;15.88;9.48;;;8.10;99.90;;;;;;5095809;28;20473;-59
2023/03/20 06:29:21;;;;;;;15.35;8.48;;;8.10;99.90;;;;;;5095396;28;20036;-60
2023/03/20 06:31:46;;;;;;;17.52;9.45;;;8.20;99.90;;;;;;5100565;28;20119;-59
2023/03/20 06:34:12;;;;;;;15.85;8.95;;;8.20;99.90;;;;;;5115896;28;20031;-59
2023/03/20 06:36:38;;;;;;;16.15;9.18;;;8.20;99.90;;;;;;5114396;28;20059;-59
2023/03/20 06:39:04;;;;;;;14.23;8.50;;;8.20;99.90;;;;;;5116317;28;20058;-59
2023/03/20 06:41:29;;;;;;;15.02;9.38;;;8.20;99.90;;;;;;5115601;28;20043;-60
2023/03/20 06:43:55;;;;;;;18.88;9.65;;;8.20;99.90;;;;;;5115908;28;20036;-60
2023/03/20 06:46:21;;;;;;;17.67;9.80;;;8.30;99.90;;;;;;5115699;28;20043;-59
2023/03/20 06:48:47;;;;;;;18.08;9.10;;;8.20;99.90;;;;;;5115750;28;20040;-58
2023/03/20 06:51:13;;;;;;;17.08;9.50;;;8.30;99.90;;;;;;5114206;28;20399;-59
2023/03/20 06:53:40;;;;;;;17.67;9.43;;;8.30;99.90;;;;;;5115867;28;20039;-59
2023/03/20 06:56:07;;;;;;;14.35;9.02;;;8.30;99.90;;;;;;5115524;28;20043;-58
2023/03/20 06:58:33;;;;;;;15.80;9.02;;;8.30;99.90;;;;;;5115314;28;20032;-59
2023/03/20 07:00:59;;;;;;;15.73;8.88;;;8.30;99.90;;;;;;5115194;28;20047;-59
2023/03/20 07:03:24;;;;;;;19.58;9.95;;;8.30;99.90;;;;;;5115342;28;20040;-59
2023/03/20 07:05:50;;;;;;;18.08;9.63;;;8.40;99.90;;;;;;5115035;28;20078;-59
2023/03/20 07:08:16;;;;;;;20.00;9.75;;;8.40;99.90;;;;;;5115509;28;20036;-60
2023/03/20 07:10:41;;;;;;;16.48;9.60;;;8.40;99.90;;;;;;5115447;28;20039;-59
2023/03/20 07:13:08;;;;;;;16.80;9.02;;;8.40;99.90;;;;;;5115403;28;20036;-58
2023/03/20 07:15:35;;;;;;;16.40;9.35;;;8.50;99.90;;;;;;5115441;28;20118;-59
2023/03/20 07:18:01;;;;;;;20.27;9.80;;;8.50;99.90;;;;;;5114256;28;20048;-59
2023/03/20 07:20:26;;;;;;;15.43;9.35;;;8.50;99.90;;;;;;5114984;28;20105;-59
2023/03/20 07:22:54;;;;;;;17.23;9.90;;;8.50;99.90;;;;;;5115078;28;20071;-59
2023/03/20 07:25:20;;;;;;;15.30;9.48;;;8.50;99.90;;;;;;5115279;28;20051;-60
2023/03/20 07:27:49;;;;;;;15.30;9.63;;;8.60;99.90;;;;;;5113764;28;20088;-60
2023/03/20 07:30:15;;;;;;;;;;;8.70;99.90;;;;;;5115798;28;20036;-60
2023/03/20 07:32:41;;;;;;;24.08;10.55;;;8.70;99.90;;;;;;5115428;28;19919;-60
2023/03/20 07:35:08;;;;;;;17.83;9.82;;;8.80;99.90;;;;;;5115113;28;20062;-59
2023/03/20 07:37:34;;;;;;;21.27;10.05;;;8.90;99.90;;;;;;5115441;28;20398;-60
2023/03/20 07:40:00;;;;;;;18.17;10.43;;;9.00;99.90;;;;;;5115272;28;20096;-59
2023/03/20 07:42:26;;;;;;;18.30;9.98;;;9.00;99.90;;;;;;5114975;27;20408;-60
2023/03/20 07:44:51;;;;;;;20.85;9.90;;;9.00;99.90;;;;;;5115120;28;20040;-61
2023/03/20 07:47:17;;;;;;;17.70;9.40;;;9.10;99.90;;;;;;5115093;28;20038;-60
2023/03/20 07:49:43;;;;;;;15.23;9.27;;;9.10;99.90;;;;;;5114938;28;20039;-59
2023/03/20 07:52:08;;;;;;;16.92;9.98;;;9.10;99.90;;;;;;5115151;28;20115;-59
2023/03/20 07:54:34;;;;;;;18.13;10.15;;;9.10;99.90;;;;;;5114613;28;20040;-59
2023/03/20 07:57:00;;;;;;;16.67;9.95;;;9.10;99.90;;;;;;5114450;28;20031;-60
2023/03/20 07:59:26;;;;;;;19.30;10.75;;;9.10;99.90;;;;;;5114861;28;20074;-59
2023/03/20 08:01:52;;;;;;;16.67;10.38;;;9.20;99.90;;;;;;5112137;28;20071;-60
2023/03/20 08:04:21;;;;;;;20.70;9.75;;;9.10;99.90;;;;;;5094551;28;20036;-59
2023/03/20 08:06:46;;;;;;;21.15;10.57;;;9.30;99.90;;;;;;5094521;28;20123;-60
2023/03/20 08:09:12;;;;;;;21.08;10.93;;;9.20;99.90;;;;;;5094096;28;20525;-59
2023/03/20 08:11:38;;;;;;;17.70;10.45;;;9.30;99.90;;;;;;5094019;28;20378;-59
2023/03/20 08:14:03;;;;;;;15.35;10.32;;;9.30;99.90;;;;;;5094029;28;20059;-59
2023/03/20 08:16:29;;;;;;;18.85;10.38;;;9.30;99.90;;;;;;5094259;28;20452;-59
2023/03/20 08:18:59;;;;;;;19.75;10.45;;;9.30;99.90;;;;;;5094077;28;20076;-59
2023/03/20 08:21:26;;;;;;;18.90;10.68;;;9.30;99.90;;;;;;5093943;28;20040;-59
2023/03/20 08:23:53;;;;;;;19.45;10.88;;;9.30;99.90;;;;;;5093540;28;20115;-60
2023/03/20 08:26:18;;;;;;;19.73;9.65;;;9.30;99.90;;;;;;5093577;28;20054;-59
2023/03/20 08:28:44;;;;;;;20.90;10.75;;;9.20;99.90;;;;;;5092493;28;20044;-59
2023/03/20 08:31:10;;;;;;;20.23;11.43;;;9.30;99.90;;;;;;5093759;28;20068;-59
2023/03/20 08:33:35;;;;;;;22.90;10.35;;;9.30;99.90;;;;;;5092390;28;20123;-59
2023/03/20 08:36:01;;;;;;;23.17;11.18;;;9.30;99.90;;;;;;5093443;28;20110;-61
2023/03/20 08:38:27;;;;;;;17.73;10.68;;;9.30;99.90;;;;;;5092137;28;20043;-59
2023/03/20 08:40:53;;;;;;;21.20;11.35;;;9.30;99.90;;;;;;5093535;28;20043;-60
2023/03/20 08:43:19;;;;;;;21.33;11.07;;;9.30;99.90;;;;;;5093094;28;20040;-60
2023/03/20 08:45:46;;;;;;;21.73;10.63;;;9.50;99.90;;;;;;5093366;28;20040;-61
2023/03/20 08:48:12;;;;;;;19.00;9.60;;;9.40;99.90;;;;;;5093341;28;20386;-60
2023/03/20 08:50:38;;;;;;;17.20;10.50;;;9.40;99.90;;;;;;5093422;28;20043;-59
2023/03/20 08:53:04;;;;;;;19.15;10.25;;;9.40;99.90;;;;;;5092171;28;20122;-59
2023/03/20 08:55:31;;;;;;;23.17;11.35;;;9.50;99.90;;;;;;5093466;28;20043;-59
2023/03/20 08:57:56;;;;;;;19.48;9.85;;;9.50;99.90;;;;;;5092962;28;20078;-59
2023/03/20 09:00:23;;;;;;;21.42;10.57;;;9.60;99.90;;;;;;5091823;28;20079;-60
2023/03/20 09:02:49;;;;;;;21.58;10.68;;;9.60;99.90;;;;;;5093439;28;20036;-59
2023/03/20 09:05:15;;;;;;;20.38;9.90;;;9.60;99.90;;;;;;5074825;28;20071;-59
2023/03/20 09:07:41;;;;;;;20.70;9.98;;;9.70;99.90;;;;;;5092957;28;20040;-59
2023/03/20 09:10:08;;;;;;;23.20;9.38;;;9.70;99.90;;;;;;5093310;28;20036;-59
2023/03/20 09:12:34;;;;;;;21.00;10.50;;;9.80;99.90;;;;;;5091463;28;20417;-60
2023/03/20 09:15:01;;;;;;;21.35;9.02;;;9.90;99.90;;;;;;5093169;28;20043;-59
2023/03/20 09:17:27;;;;;;;17.88;9.07;;;10.00;99.90;;;;;;5091641;28;20119;-59
2023/03/20 09:19:52;;;;;;;22.55;9.73;;;10.10;99.90;;;;;;5092894;28;20174;-60
2023/03/20 09:22:18;;;;;;;17.75;9.15;;;10.20;99.90;;;;;;5091527;28;20511;-60
2023/03/20 09:24:45;;;;;;;14.80;8.52;;;10.30;99.90;;;;;;5091576;28;20522;-59
2023/03/20 09:27:14;;;;;;;16.88;8.98;;;10.30;99.90;;;;;;5093284;28;20032;-60
2023/03/20 09:29:40;;;;;;;;;;;10.40;99.90;;;;;;5093513;28;20039;-59
2023/03/20 09:32:05;;;;;;;19.15;9.73;;;10.30;99.90;;;;;;5092979;28;19927;-59
2023/03/20 09:34:31;;;;;;;17.85;8.13;;;10.40;99.90;;;;;;5092835;28;20111;-59
2023/03/20 09:36:57;;;;;;;16.73;8.52;;;10.40;99.90;;;;;;5092390;28;20047;-60
2023/03/20 09:39:23;;;;;;;16.77;8.38;;;10.40;99.90;;;;;;5092527;28;20393;-59
2023/03/20 09:41:50;;;;;;;20.02;8.52;;;10.50;99.90;;;;;;5091866;28;20130;-59
2023/03/20 09:44:45;;;;;;;20.45;9.75;;;10.50;99.90;;;;;;5093030;28;20036;-59
2023/03/20 09:47:29;;;;;;;19.67;9.50;;;10.50;99.90;;;;;;5092468;28;20048;-59
2023/03/20 09:50:22;;;;;;;21.08;9.40;;;10.50;99.90;;;;;;5092134;28;20123;-60
2023/03/20 09:53:06;;;;;;;17.98;8.82;;;10.50;99.90;;;;;;5092467;28;20051;-59
2023/03/20 09:55:40;;;;;;;19.17;8.63;;;10.50;99.90;;;;;;5092878;28;20047;-60
2023/03/20 09:58:25;;;;;;;19.98;9.40;;;10.50;99.90;;;;;;5092130;28;20545;-59
2023/03/20 10:00:51;;;;;;;18.75;9.35;;;10.70;99.90;;;;;;5092375;28;20039;-59
2023/03/20 10:03:46;;;;;;;19.10;9.20;;;10.70;99.90;;;;;;5092275;28;20047;-59
2023/03/20 10:06:15;;;;;;;19.27;9.05;;;10.90;99.90;;;;;;5092000;28;20405;-59
2023/03/20 10:08:42;;;;;;;14.10;8.25;;;11.00;99.90;;;;;;5092519;28;20120;-60
2023/03/20 10:11:20;;;;;;;17.90;9.38;;;11.00;99.90;;;;;;5092243;28;20482;-59
2023/03/20 10:14:23;;;;;;;19.48;8.93;;;11.10;99.90;;;;;;5092304;28;20075;-60
2023/03/20 10:16:54;;;;;;;20.48;9.80;;;11.20;99.90;;;;;;5092110;28;20043;-59
2023/03/20 10:19:31;;;;;;;14.60;8.15;;;11.10;99.90;;;;;;5091050;28;20043;-59
2023/03/20 10:22:01;;;;;;;15.75;9.05;;;11.00;99.90;;;;;;5092307;28;20040;-59
2023/03/20 10:24:48;;;;;;;13.05;8.18;;;10.90;99.90;;;;;;5092427;28;20039;-59
2023/03/20 10:27:44;;;;;;;17.27;8.38;;;10.90;99.90;;;;;;5092196;28;20044;-59
2023/03/20 10:30:40;;;;;;;16.98;8.60;;;10.80;99.90;;;;;;5091280;28;20048;-60
2023/03/20 10:33:11;;;;;;;19.92;8.82;;;10.90;99.90;;;;;;5092027;28;20119;-60
2023/03/20 10:35:58;;;;;;;14.68;8.68;;;10.90;99.90;;;;;;5091630;28;20567;-60
2023/03/20 10:38:27;;;;;;;13.23;7.80;;;10.90;99.90;;;;;;5091784;28;20486;-60
2023/03/20 10:40:56;;;;;;;23.63;8.50;;;10.90;99.90;;;;;;5091992;28;20067;-63
2023/03/20 10:43:29;;;;;;;19.85;8.80;;;10.90;99.90;;;;;;5090519;28;20048;-60
2023/03/20 10:46:12;;;;;;;17.98;8.80;;;11.00;99.90;;;;;;5091971;28;20075;-61
2023/03/20 10:49:11;;;;;;;16.88;8.10;;;10.90;99.90;;;;;;5091750;28;20036;-61
2023/03/20 10:51:54;;;;;;;15.27;8.68;;;11.10;99.90;;;;;;5091538;28;20071;-62
2023/03/20 10:54:25;;;;;;;16.25;7.40;;;11.20;99.90;;;;;;5094851;28;20068;-60
2023/03/20 10:56:55;;;;;;;18.17;7.07;;;11.20;99.90;;;;;;5095272;28;20035;-60
2023/03/20 10:59:37;;;;;;;18.80;7.82;;;11.20;99.90;;;;;;5076626;28;20047;-59
2023/03/20 11:02:15;;;;;;;18.30;7.57;;;11.20;99.90;;;;;;5093543;28;20630;-60
2023/03/20 11:04:40;;;;;;;18.35;7.57;;;11.10;99.90;;;;;;5095323;28;20047;-60
2023/03/20 11:07:22;;;;;;;18.92;7.18;;;11.10;99.90;;;;;;5094714;28;20032;-60
2023/03/20 11:10:06;;;;;;;16.45;7.28;;;10.90;99.90;;;;;;5095223;28;20040;-60
2023/03/20 11:12:41;;;;;;;15.05;6.90;;;10.90;99.90;;;;;;5095047;28;20032;-60
2023/03/20 11:15:30;;;;;;;19.42;7.55;;;10.80;99.90;;;;;;5095114;28;20040;-60
2023/03/20 11:18:12;;;;;;;17.42;6.70;;;10.70;99.90;;;;;;5094963;28;20079;-60
2023/03/20 11:20:49;;;;;;;14.15;7.65;;;10.80;99.90;;;;;;5094977;28;20051;-60
2023/03/20 11:23:18;;;;;;;19.33;7.65;;;10.70;99.90;;;;;;5095063;28;20402;-60
2023/03/20 11:26:03;;;;;;;19.50;7.65;;;10.70;99.90;;;;;;5094615;28;20116;-61
2023/03/20 11:28:37;;;;;;;13.52;6.93;;;10.60;99.90;;;;;;5094974;28;20072;-60
2023/03/20 11:31:11;;;;;;;14.38;6.45;;;10.50;99.90;;;;;;5094630;28;20032;-61
2023/03/20 11:34:04;;;;;;;14.20;6.18;;;10.30;99.90;;;;;;5094501;28;20535;-60
2023/03/20 11:36:39;;;;;;;13.05;6.20;;;10.30;99.90;;;;;;5012044;28;20054;-60
2023/03/20 11:39:20;;;;;;;13.55;5.75;;;10.30;99.90;;;;;;5012114;28;20555;-60
2023/03/20 11:41:55;;;;;;;15.38;6.10;;;10.20;99.90;;;;;;5011999;28;20054;-60
2023/03/20 11:44:30;;;;;;;17.63;6.60;;;10.20;99.90;;;;;;5011981;28;20415;-60
2023/03/20 11:47:02;;;;;;;18.20;6.35;;;10.30;99.90;;;;;;5011876;28;20091;-60
2023/03/20 11:49:29;;;;;;;16.80;6.25;;;10.20;99.90;;;;;;5011925;28;20038;-60
2023/03/20 11:52:10;;;;;;;13.25;7.03;;;10.20;99.90;;;;;;5012146;28;20052;-62
2023/03/20 11:54:38;;;;;;;15.23;6.25;;;10.30;99.90;;;;;;5011948;28;20668;-61
2023/03/20 11:57:04;;;;;;;13.83;6.13;;;10.20;99.90;;;;;;4995551;28;20045;-60
2023/03/20 11:59:33;;;;;;;14.93;5.95;;;10.20;99.90;;;;;;5011767;28;20376;-61
2023/03/20 12:02:02;;;;;;;14.57;6.22;;;10.10;99.90;;;;;;5011789;28;20417;-60
2023/03/20 12:04:46;;;;;;;12.93;6.28;;;10.00;99.90;;;;;;5011436;28;20033;-60
2023/03/20 12:07:16;;;;;;;9.75;4.63;;;10.20;99.90;;;;;;5011621;28;20054;-60
2023/03/20 12:10:03;;;;;;;12.38;4.85;;;10.00;99.90;;;;;;5011588;28;20057;-60
2023/03/20 12:12:50;;;;;;;10.77;4.40;;;10.00;99.90;;;;;;5025337;28;20059;-60
2023/03/20 12:15:36;;;;;;;12.90;4.30;;;10.00;99.90;;;;;;5093531;28;20074;-60
2023/03/20 12:18:10;;;;;;;8.68;4.60;;;9.80;99.90;;;;;;5094062;28;20039;-60
2023/03/20 12:20:53;;;;;;;9.18;4.53;;;9.80;99.90;;;;;;5093583;28;20044;-60
2023/03/20 12:23:55;;;;;;;8.85;4.72;;;9.80;99.90;;;;;;5093857;28;20048;-60
2023/03/20 12:26:27;;;;;;;9.75;4.10;;;9.80;99.90;;;;;;5089758;28;20063;-60
2023/03/20 12:29:22;;;;;;;8.20;3.47;;;9.80;99.90;;;;;;5093699;28;20363;-60
2023/03/20 12:31:52;;;;;;;8.68;3.63;;;9.80;99.90;;;;;;5092170;28;20093;-59
2023/03/20 12:34:32;;;;;;;6.30;3.20;;;9.80;99.90;;;;;;5092065;28;20355;-60
2023/03/20 12:36:57;;;;;;;11.85;3.75;;;9.80;99.90;;;;;;5093210;28;20521;-60
2023/03/20 12:39:33;;;;;;;7.95;3.45;;;9.80;99.90;;;;;;5093066;28;20079;-61
2023/03/20 12:42:38;;;;;;;7.82;3.40;;;9.80;99.90;;;;;;5093113;28;20108;-61
2023/03/20 12:45:22;;;;;;;9.13;3.90;;;9.80;99.90;;;;;;5093255;28;20040;-61
2023/03/20 12:47:50;;;;;;;10.73;3.60;;;9.70;99.90;;;;;;5091997;28;20035;-60
2023/03/20 12:50:23;;;;;;;7.88;3.05;;;9.70;99.90;;;;;;5092970;28;20077;-60
2023/03/20 12:53:10;;;;;;;10.57;3.13;;;9.80;99.90;;;;;;5092971;28;20068;-62
2023/03/20 12:56:13;;;;;;;9.13;3.58;;;9.70;99.90;;;;;;5093110;28;20040;-62
2023/03/20 12:58:56;;;;;;;10.13;4.40;;;9.70;99.90;;;;;;5093226;28;20036;-60
2023/03/20 13:01:35;;;;;;;7.80;4.50;;;9.60;99.90;;;;;;5092854;28;20091;-60
2023/03/20 13:04:38;;;;;;;12.00;4.30;;;9.60;99.90;;;;;;5092809;28;20059;-60
2023/03/20 13:07:14;;;;;;;8.05;4.50;;;9.60;99.90;;;;;;5091343;28;20294;-60